Arsenal, Pennsylvania
Current Conditions -  °F | °C
As of 11:09 AM on Monday 26 Jan 2015 (Local Time) from KAGC Reporting Station
Moderate Snow Moderate Snow  
Wind Chill: 23°   Ceiling: 600
Heat Index: 28°   Visibility: 0.5mi
Dew Point: 25°   Wind: 5mph
Humidity: 88%   Direction: NA
Pressure: 29.69"   Gusts: NA
Location:  40.4738°N, 79.952°W
Report Text: KAGC 261609Z VRB04KT 1/2SM R28/3000V3500FT SN FZFG BKN006 OVC011 M02/M04 A2969 RMK AO2 P0001 T10221039
Loading
Personal Weather Stations






























Interactive Weather Map New forecast layout! Learn more

10-Day Weather Forecast

Advertisements
Track Severe Weather on mobile